createdAt,value
2018-07-25T00:00:01.452Z,22.56
2018-07-25T00:01:01.431Z,22.56
2018-07-25T00:02:01.452Z,22.59
2018-07-25T00:03:01.416Z,22.54
2018-07-25T00:04:01.405Z,22.53
2018-07-25T00:05:01.388Z,22.44
2018-07-25T00:06:01.390Z,22.47
2018-07-25T00:07:01.364Z,22.47
2018-07-25T00:08:01.379Z,22.46
2018-07-25T00:09:01.346Z,22.43
2018-07-25T00:10:01.331Z,22.43
2018-07-25T00:11:01.324Z,22.38
2018-07-25T00:12:01.341Z,22.34
2018-07-25T00:13:01.324Z,22.34
2018-07-25T00:14:01.289Z,22.20
2018-07-25T00:15:01.273Z,22.37
2018-07-25T00:16:01.262Z,22.25
2018-07-25T00:17:01.257Z,22.23
2018-07-25T00:18:01.239Z,22.22
2018-07-25T00:19:01.257Z,22.17
2018-07-25T00:20:01.219Z,22.19
2018-07-25T00:21:01.212Z,22.20
2018-07-25T00:22:01.197Z,22.04
2018-07-25T00:23:01.187Z,22.04
2018-07-25T00:24:01.199Z,22.04
2018-07-25T00:25:01.163Z,22.16
2018-07-25T00:26:01.151Z,22.13
2018-07-25T00:27:01.144Z,22.01
2018-07-25T00:28:01.129Z,22.02
2018-07-25T00:29:01.146Z,21.99
2018-07-25T00:30:01.110Z,21.88
2018-07-25T00:31:01.090Z,21.85
2018-07-25T00:32:01.088Z,22.01
2018-07-25T00:33:01.068Z,21.90
2018-07-25T00:34:01.097Z,21.95
2018-07-25T00:35:01.048Z,21.91
2018-07-25T00:36:01.045Z,21.91
2018-07-25T00:37:01.031Z,21.82
2018-07-25T00:38:01.023Z,21.85
2018-07-25T00:39:00.999Z,21.85
2018-07-25T00:40:01.023Z,21.83
2018-07-25T00:41:00.977Z,21.76
2018-07-25T00:42:00.969Z,21.81
2018-07-25T00:43:00.960Z,21.78
2018-07-25T00:44:00.945Z,21.81
2018-07-25T00:45:00.961Z,21.83
2018-07-25T00:46:00.926Z,21.74
2018-07-25T00:47:00.917Z,21.74
2018-07-25T00:48:00.904Z,21.71
2018-07-25T00:49:00.889Z,21.71
2018-07-25T00:50:00.914Z,21.74
2018-07-25T00:51:00.864Z,21.61
2018-07-25T00:52:00.856Z,21.61
2018-07-25T00:53:00.856Z,21.64
2018-07-25T00:54:00.835Z,21.60
2018-07-25T00:55:00.823Z,21.53
2018-07-25T00:56:00.839Z,21.61
2018-07-25T00:57:00.801Z,21.50
2018-07-25T00:58:00.785Z,21.50
2018-07-25T00:59:00.782Z,21.56
2018-07-25T01:00:00.761Z,21.46
2018-07-25T01:01:00.782Z,21.50
2018-07-25T01:02:00.748Z,21.45
2018-07-25T01:03:00.728Z,21.50
2018-07-25T01:04:00.728Z,21.42
2018-07-25T01:05:00.705Z,21.41
2018-07-25T01:06:00.721Z,21.32
2018-07-25T01:07:00.688Z,21.35
2018-07-25T01:08:00.679Z,21.39
2018-07-25T01:09:00.666Z,21.24
2018-07-25T01:10:00.653Z,21.20
2018-07-25T01:11:00.679Z,21.23
2018-07-25T01:12:00.626Z,21.23
2018-07-25T01:13:00.624Z,21.27
2018-07-25T01:14:00.603Z,21.32
2018-07-25T01:15:00.603Z,21.16
2018-07-25T01:16:00.585Z,21.23
2018-07-25T01:17:00.596Z,21.17
2018-07-25T01:18:00.565Z,21.23
2018-07-25T01:19:00.546Z,21.24
2018-07-25T01:20:00.537Z,21.11
2018-07-25T01:21:00.528Z,21.08
2018-07-25T01:22:00.535Z,21.13
2018-07-25T01:23:00.509Z,21.13
2018-07-25T01:24:00.493Z,21.05
2018-07-25T01:25:00.480Z,21.05
2018-07-25T01:26:00.474Z,21.11
2018-07-25T01:27:00.495Z,21.02
2018-07-25T01:28:00.452Z,21.09
2018-07-25T01:29:00.438Z,21.08
2018-07-25T01:30:00.423Z,21.17
2018-07-25T01:31:00.417Z,21.01
2018-07-25T01:32:00.400Z,21.02
2018-07-25T01:33:00.419Z,21.08
2018-07-25T01:34:00.380Z,20.96
2018-07-25T01:35:00.366Z,21.01
2018-07-25T01:36:00.360Z,20.93
2018-07-25T01:37:00.345Z,20.99
2018-07-25T01:38:00.358Z,20.87
2018-07-25T01:39:00.326Z,20.86
2018-07-25T01:40:00.311Z,20.83
2018-07-25T01:41:00.296Z,20.76
2018-07-25T01:42:00.291Z,20.89
2018-07-25T01:43:00.295Z,20.86
2018-07-25T01:44:00.262Z,20.90
2018-07-25T01:45:00.271Z,20.89
2018-07-25T01:46:00.245Z,20.84
2018-07-25T01:47:00.224Z,20.89
2018-07-25T01:48:00.217Z,20.80
2018-07-25T01:49:00.212Z,20.93
2018-07-25T01:50:00.215Z,20.80
2018-07-25T01:51:00.186Z,20.79
2018-07-25T01:52:00.176Z,20.77
2018-07-25T01:53:00.158Z,20.66
2018-07-25T01:54:00.147Z,20.81
2018-07-25T01:55:00.156Z,20.77
2018-07-25T01:56:00.123Z,20.64
2018-07-25T01:57:00.113Z,20.68
2018-07-25T01:58:00.104Z,20.65
2018-07-25T01:59:00.092Z,20.64
2018-07-25T02:00:00.119Z,20.61
2018-07-25T02:01:00.072Z,20.56
2018-07-25T02:02:00.058Z,20.54
2018-07-25T02:03:00.042Z,20.62
2018-07-25T02:04:00.027Z,20.56
2018-07-25T02:05:00.050Z,20.53
2018-07-25T02:06:00.006Z,20.56
2018-07-25T02:06:59.996Z,20.53
2018-07-25T02:07:59.988Z,20.62
2018-07-25T02:09:00.019Z,20.56
2018-07-25T02:09:59.980Z,20.53
2018-07-25T02:10:59.951Z,20.41
2018-07-25T02:11:59.933Z,20.38
2018-07-25T02:12:59.929Z,20.46
2018-07-25T02:13:59.919Z,20.47
2018-07-25T02:14:59.921Z,20.41
2018-07-25T02:15:59.894Z,20.49
2018-07-25T02:16:59.880Z,20.51
2018-07-25T02:17:59.870Z,20.39
2018-07-25T02:18:59.860Z,20.46
2018-07-25T02:19:59.867Z,20.38
2018-07-25T02:20:59.835Z,20.43
2018-07-25T02:21:59.822Z,20.38
2018-07-25T02:22:59.809Z,20.38
2018-07-25T02:23:59.799Z,20.30
2018-07-25T02:24:59.810Z,20.28
2018-07-25T02:25:59.771Z,20.25
2018-07-25T02:26:59.764Z,20.33
2018-07-25T02:27:59.754Z,20.21
2018-07-25T02:28:59.733Z,20.21
2018-07-25T02:29:59.753Z,20.30
2018-07-25T02:30:59.713Z,20.13
2018-07-25T02:31:59.698Z,20.21
2018-07-25T02:32:59.690Z,20.23
2018-07-25T02:33:59.677Z,20.20
2018-07-25T02:34:59.699Z,20.05
2018-07-25T02:35:59.660Z,20.12
2018-07-25T02:36:59.643Z,20.08
2018-07-25T02:37:59.638Z,20.16
2018-07-25T02:38:59.618Z,20.15
2018-07-25T02:39:59.629Z,20.15
2018-07-25T02:40:59.605Z,20.08
2018-07-25T02:41:59.583Z,20.00
2018-07-25T02:42:59.574Z,20.03
2018-07-25T02:43:59.565Z,20.09
2018-07-25T02:44:59.579Z,20.10
2018-07-25T02:45:59.543Z,20.00
2018-07-25T02:46:59.523Z,20.05
2018-07-25T02:47:59.515Z,20.05
2018-07-25T02:48:59.500Z,20.03
2018-07-25T02:49:59.516Z,19.95
2018-07-25T02:50:59.483Z,19.93
2018-07-25T02:51:59.473Z,20.08
2018-07-25T02:52:59.453Z,20.00
2018-07-25T02:53:59.449Z,19.97
2018-07-25T02:54:59.452Z,19.95
2018-07-25T02:55:59.419Z,19.87
2018-07-25T02:56:59.460Z,19.94
2018-07-25T02:57:59.397Z,19.86
2018-07-25T02:58:59.384Z,20.00
2018-07-25T02:59:59.398Z,19.97
2018-07-25T03:00:59.367Z,19.86
2018-07-25T03:01:59.353Z,19.87
2018-07-25T03:02:59.339Z,19.91
2018-07-25T03:03:59.331Z,19.88
2018-07-25T03:04:59.346Z,19.87
2018-07-25T03:05:59.301Z,19.80
2018-07-25T03:06:59.301Z,19.75
2018-07-25T03:07:59.279Z,19.95
2018-07-25T03:08:59.331Z,19.87
2018-07-25T03:09:59.287Z,19.78
2018-07-25T03:10:59.243Z,19.70
2018-07-25T03:11:59.239Z,19.70
2018-07-25T03:12:59.224Z,19.76
2018-07-25T03:13:59.215Z,19.84
2018-07-25T03:14:59.223Z,19.55
2018-07-25T03:15:59.190Z,19.69
2018-07-25T03:16:59.177Z,19.72
2018-07-25T03:17:59.163Z,19.60
2018-07-25T03:18:59.155Z,19.66
2018-07-25T03:19:59.174Z,19.60
2018-07-25T03:20:59.137Z,19.48
2018-07-25T03:21:59.117Z,19.65
2018-07-25T03:22:59.115Z,19.50
2018-07-25T03:23:59.094Z,19.60
2018-07-25T03:24:59.111Z,19.55
2018-07-25T03:25:59.080Z,19.55
2018-07-25T03:26:59.060Z,19.58
2018-07-25T03:27:59.051Z,19.54
2018-07-25T03:28:59.040Z,19.61
2018-07-25T03:29:59.056Z,19.55
2018-07-25T03:30:59.012Z,19.54
2018-07-25T03:31:59.009Z,19.46
2018-07-25T03:32:58.989Z,19.47
2018-07-25T03:33:58.977Z,19.57
2018-07-25T03:34:59.002Z,19.54
2018-07-25T03:35:58.952Z,19.53
2018-07-25T03:36:58.951Z,19.55
2018-07-25T03:37:58.930Z,19.51
2018-07-25T03:38:58.927Z,19.50
2018-07-25T03:39:58.935Z,19.61
2018-07-25T03:40:58.898Z,19.60
2018-07-25T03:41:58.892Z,19.50
2018-07-25T03:42:58.872Z,19.47
2018-07-25T03:43:58.862Z,19.50
2018-07-25T03:44:58.881Z,19.48
2018-07-25T03:45:58.843Z,19.46
2018-07-25T03:46:58.832Z,19.47
2018-07-25T03:47:58.814Z,19.51
2018-07-25T03:48:58.810Z,19.54
2018-07-25T03:49:58.817Z,19.43
2018-07-25T03:50:58.785Z,19.51
2018-07-25T03:51:58.779Z,19.57
2018-07-25T03:52:58.761Z,19.47
2018-07-25T03:53:58.748Z,19.46
2018-07-25T03:54:58.766Z,19.42
2018-07-25T03:55:58.730Z,19.39
2018-07-25T03:56:58.713Z,19.47
2018-07-25T03:57:58.705Z,19.36
2018-07-25T03:58:58.691Z,19.48
2018-07-25T03:59:58.699Z,19.40
2018-07-25T04:00:58.675Z,19.38
2018-07-25T04:01:58.684Z,19.47
2018-07-25T04:02:58.649Z,19.40
2018-07-25T04:03:58.641Z,19.36
2018-07-25T04:04:58.643Z,19.31
2018-07-25T04:05:58.607Z,19.42
2018-07-25T04:06:58.605Z,19.39
2018-07-25T04:07:58.584Z,19.32
2018-07-25T04:08:58.578Z,19.42
2018-07-25T04:09:58.591Z,19.33
2018-07-25T04:10:58.555Z,19.32
2018-07-25T04:11:58.546Z,19.28
2018-07-25T04:12:58.535Z,19.38
2018-07-25T04:13:58.519Z,19.42
2018-07-25T04:14:58.531Z,19.36
2018-07-25T04:15:58.498Z,19.31
2018-07-25T04:16:58.482Z,19.39
2018-07-25T04:17:58.478Z,19.35
2018-07-25T04:18:58.462Z,19.38
2018-07-25T04:19:58.470Z,19.29
2018-07-25T04:20:58.445Z,19.33
2018-07-25T04:21:58.433Z,19.25
2018-07-25T04:22:58.418Z,19.31
2018-07-25T04:23:58.404Z,19.29
2018-07-25T04:24:58.418Z,19.38
2018-07-25T04:25:58.387Z,19.25
2018-07-25T04:26:58.367Z,19.24
2018-07-25T04:27:58.363Z,19.25
2018-07-25T04:28:58.345Z,19.29
2018-07-25T04:29:58.358Z,19.28
2018-07-25T04:30:58.332Z,19.24
2018-07-25T04:31:58.312Z,19.23
2018-07-25T04:32:58.308Z,19.31
2018-07-25T04:33:58.308Z,19.29
2018-07-25T04:34:58.300Z,19.31
2018-07-25T04:35:58.267Z,19.28
2018-07-25T04:36:58.257Z,19.36
2018-07-25T04:37:58.246Z,19.32
2018-07-25T04:38:58.231Z,19.31
2018-07-25T04:39:58.241Z,19.31
2018-07-25T04:40:58.218Z,19.32
2018-07-25T04:41:58.198Z,19.31
2018-07-25T04:42:58.184Z,19.31
2018-07-25T04:43:58.176Z,19.31
2018-07-25T04:44:58.186Z,19.25
2018-07-25T04:45:58.152Z,19.38
2018-07-25T04:46:58.141Z,19.32
2018-07-25T04:47:58.128Z,19.39
2018-07-25T04:48:58.120Z,19.36
2018-07-25T04:49:58.132Z,19.42
2018-07-25T04:50:58.099Z,19.42
2018-07-25T04:51:58.136Z,19.38
2018-07-25T04:52:58.069Z,19.40
2018-07-25T04:53:58.065Z,19.48
2018-07-25T04:54:58.068Z,19.47
2018-07-25T04:55:58.045Z,19.42
2018-07-25T04:56:58.031Z,19.50
2018-07-25T04:57:58.018Z,19.46
2018-07-25T04:58:57.999Z,19.47
2018-07-25T04:59:58.011Z,19.50
2018-07-25T05:00:57.980Z,19.42
2018-07-25T05:01:57.965Z,19.54
2018-07-25T05:02:57.962Z,19.53
2018-07-25T05:03:57.946Z,19.51
2018-07-25T05:04:57.957Z,19.58
2018-07-25T05:05:57.924Z,19.58
2018-07-25T05:06:57.913Z,19.50
2018-07-25T05:07:57.897Z,19.60
2018-07-25T05:08:57.892Z,19.65
2018-07-25T05:09:57.899Z,19.69
2018-07-25T05:10:57.860Z,19.78
2018-07-25T05:11:57.845Z,19.70
2018-07-25T05:12:57.837Z,19.84
2018-07-25T05:13:57.828Z,19.76
2018-07-25T05:14:57.968Z,19.79
2018-07-25T05:15:57.811Z,19.87
2018-07-25T05:16:57.791Z,19.90
2018-07-25T05:17:57.879Z,19.87
2018-07-25T05:18:57.771Z,20.05
2018-07-25T05:19:57.781Z,20.00
2018-07-25T05:20:57.748Z,19.94
2018-07-25T05:21:57.733Z,19.95
2018-07-25T05:22:57.818Z,20.10
2018-07-25T05:23:57.718Z,20.12
2018-07-25T05:24:57.723Z,20.12
2018-07-25T05:25:57.691Z,20.18
2018-07-25T05:26:57.680Z,20.20
2018-07-25T05:27:57.663Z,20.06
2018-07-25T05:28:57.654Z,20.03
2018-07-25T05:29:57.662Z,20.15
2018-07-25T05:30:57.636Z,20.28
2018-07-25T05:31:57.624Z,20.13
2018-07-25T05:32:57.608Z,20.15
2018-07-25T05:33:57.603Z,20.23
2018-07-25T05:34:57.606Z,20.23
2018-07-25T05:35:57.577Z,20.35
2018-07-25T05:36:57.569Z,20.49
2018-07-25T05:37:57.548Z,20.28
2018-07-25T05:38:57.543Z,20.50
2018-07-25T05:39:57.551Z,20.47
2018-07-25T05:40:57.522Z,20.50
2018-07-25T05:41:57.514Z,20.54
2018-07-25T05:42:57.491Z,20.50
2018-07-25T05:43:57.554Z,20.46
2018-07-25T05:44:57.499Z,20.54
2018-07-25T05:45:57.461Z,20.58
2018-07-25T05:46:57.454Z,20.62
2018-07-25T05:47:57.437Z,20.58
2018-07-25T05:48:57.429Z,20.59
2018-07-25T05:49:57.441Z,20.62
2018-07-25T05:50:57.405Z,20.58
2018-07-25T05:51:57.402Z,20.61
2018-07-25T05:52:57.381Z,20.79
2018-07-25T05:53:57.369Z,20.83
2018-07-25T05:54:57.381Z,20.84
2018-07-25T05:55:57.347Z,20.93
2018-07-25T05:56:57.337Z,20.98
2018-07-25T05:57:57.332Z,21.01
2018-07-25T05:58:57.313Z,21.06
2018-07-25T05:59:57.332Z,21.17
2018-07-25T06:00:57.296Z,21.21
2018-07-25T06:01:57.276Z,21.27
2018-07-25T06:02:57.423Z,21.29
2018-07-25T06:03:57.254Z,21.35
2018-07-25T06:04:57.272Z,21.35
2018-07-25T06:05:57.252Z,21.38
2018-07-25T06:06:57.218Z,21.59
2018-07-25T06:07:57.215Z,21.54
2018-07-25T06:08:57.197Z,21.60
2018-07-25T06:09:57.211Z,21.64
2018-07-25T06:10:57.175Z,21.67
2018-07-25T06:11:57.169Z,21.66
2018-07-25T06:12:57.211Z,21.74
2018-07-25T06:13:57.146Z,21.79
2018-07-25T06:14:57.152Z,21.83
2018-07-25T06:15:57.117Z,21.88
2018-07-25T06:16:57.103Z,21.81
2018-07-25T06:17:57.094Z,21.78
2018-07-25T06:18:57.085Z,21.92
2018-07-25T06:19:57.100Z,21.95
2018-07-25T06:20:57.056Z,22.06
2018-07-25T06:21:57.050Z,22.10
2018-07-25T06:22:57.037Z,22.19
2018-07-25T06:23:57.021Z,22.23
2018-07-25T06:24:57.094Z,22.25
2018-07-25T06:25:57.065Z,22.43
2018-07-25T06:26:56.988Z,22.41
2018-07-25T06:27:56.985Z,22.53
2018-07-25T06:28:56.966Z,22.80
2018-07-25T06:29:56.982Z,22.80
2018-07-25T06:30:56.953Z,22.99
2018-07-25T06:31:56.932Z,22.93
2018-07-25T06:32:56.924Z,23.02
2018-07-25T06:33:56.919Z,23.14
2018-07-25T06:34:56.927Z,23.35
2018-07-25T06:35:56.885Z,23.42
2018-07-25T06:36:56.885Z,23.50
2018-07-25T06:37:56.901Z,23.58
2018-07-25T06:38:56.860Z,23.82
2018-07-25T06:39:56.874Z,23.87
2018-07-25T06:40:56.829Z,24.07
2018-07-25T06:41:56.825Z,24.14
2018-07-25T06:42:56.810Z,24.17
2018-07-25T06:43:56.799Z,24.41
2018-07-25T06:44:56.813Z,24.44
2018-07-25T06:45:56.783Z,24.56
2018-07-25T06:46:56.771Z,24.57
2018-07-25T06:47:56.756Z,24.67
2018-07-25T06:48:56.746Z,24.75
2018-07-25T06:49:56.765Z,24.76
2018-07-25T06:50:56.719Z,24.83
2018-07-25T06:51:56.710Z,24.97
2018-07-25T06:52:56.703Z,25.12
2018-07-25T06:53:56.688Z,25.24
2018-07-25T06:54:56.711Z,25.46
2018-07-25T06:55:56.670Z,25.53
2018-07-25T06:56:56.654Z,25.64
2018-07-25T06:57:56.641Z,25.64
2018-07-25T06:58:56.629Z,25.82
2018-07-25T06:59:56.643Z,25.86
2018-07-25T07:00:56.613Z,25.99
2018-07-25T07:01:56.603Z,26.06
2018-07-25T07:02:56.588Z,26.09
2018-07-25T07:03:56.579Z,26.22
2018-07-25T07:04:56.571Z,26.31
2018-07-25T07:05:56.581Z,26.40
2018-07-25T07:06:56.563Z,26.50
2018-07-25T07:07:56.535Z,26.54
2018-07-25T07:08:56.530Z,26.74
2018-07-25T07:09:56.510Z,26.72
2018-07-25T07:10:56.528Z,26.79
2018-07-25T07:11:56.488Z,26.89
2018-07-25T07:12:56.480Z,27.01
2018-07-25T07:13:56.462Z,27.13
2018-07-25T07:14:56.454Z,27.14
2018-07-25T07:15:56.470Z,27.35
2018-07-25T07:16:56.436Z,27.41
2018-07-25T07:17:56.428Z,27.51
2018-07-25T07:18:56.408Z,27.57
2018-07-25T07:19:56.402Z,27.69
2018-07-25T07:20:56.411Z,27.73
2018-07-25T07:21:56.387Z,27.92
2018-07-25T07:22:56.373Z,27.96
2018-07-25T07:23:56.407Z,27.94
2018-07-25T07:24:56.344Z,28.01
2018-07-25T07:25:56.362Z,28.22
2018-07-25T07:26:56.326Z,28.32
2018-07-25T07:27:56.313Z,28.31
2018-07-25T07:28:56.308Z,28.51
2018-07-25T07:29:56.298Z,28.50
2018-07-25T07:30:56.315Z,28.50
2018-07-25T07:31:56.276Z,28.62
2018-07-25T07:32:56.255Z,28.78
2018-07-25T07:33:56.251Z,28.81
2018-07-25T07:34:56.237Z,28.81
2018-07-25T07:35:56.258Z,29.01
2018-07-25T07:36:56.223Z,29.04
2018-07-25T07:37:56.208Z,29.28
2018-07-25T07:38:56.194Z,29.31
2018-07-25T07:39:56.180Z,29.50
2018-07-25T07:40:56.204Z,29.59
2018-07-25T07:41:56.163Z,29.68
2018-07-25T07:42:56.159Z,29.77
2018-07-25T07:43:56.148Z,29.74
2018-07-25T07:44:56.125Z,29.72
2018-07-25T07:45:56.145Z,29.77
2018-07-25T07:46:56.113Z,29.82
2018-07-25T07:47:56.093Z,29.90
2018-07-25T07:48:56.095Z,29.94
2018-07-25T07:49:56.086Z,30.08
2018-07-25T07:50:56.095Z,30.00
2018-07-25T07:51:56.062Z,30.14
2018-07-25T07:52:56.041Z,30.33
2018-07-25T07:53:56.068Z,30.33
2018-07-25T07:54:56.020Z,30.37
2018-07-25T07:55:56.042Z,30.50
2018-07-25T07:56:56.000Z,30.59
2018-07-25T07:57:55.992Z,30.64
2018-07-25T07:58:55.986Z,30.71
2018-07-25T07:59:55.969Z,30.86
2018-07-25T08:00:55.990Z,31.12
2018-07-25T08:01:55.958Z,31.08
2018-07-25T08:02:55.939Z,31.24
2018-07-25T08:03:55.933Z,31.30
2018-07-25T08:04:55.942Z,31.31
2018-07-25T08:05:55.939Z,31.45
2018-07-25T08:06:55.897Z,31.43
2018-07-25T08:07:55.883Z,31.53
2018-07-25T08:08:55.883Z,31.68
2018-07-25T08:09:55.872Z,31.84
2018-07-25T08:10:55.880Z,31.85
2018-07-25T08:11:55.848Z,31.95
2018-07-25T08:12:55.837Z,32.06
2018-07-25T08:13:55.826Z,32.21
2018-07-25T08:14:55.819Z,32.33
2018-07-25T08:15:55.830Z,32.42
2018-07-25T08:16:55.798Z,32.58
2018-07-25T08:17:55.813Z,32.55
2018-07-25T08:18:55.776Z,32.64
2018-07-25T08:19:55.776Z,32.66
2018-07-25T08:20:55.808Z,32.62
2018-07-25T08:21:55.755Z,32.64
2018-07-25T08:22:55.735Z,32.77
2018-07-25T08:23:55.730Z,32.79
2018-07-25T08:24:55.722Z,32.84
2018-07-25T08:25:55.741Z,32.92
2018-07-25T08:26:55.695Z,32.93
2018-07-25T08:27:55.688Z,33.03
2018-07-25T08:28:55.683Z,33.01
2018-07-25T08:29:55.663Z,33.11
2018-07-25T08:30:55.688Z,33.30
2018-07-25T08:31:55.644Z,33.43
2018-07-25T08:32:55.665Z,33.48
2018-07-25T08:33:55.653Z,33.57
2018-07-25T08:34:55.726Z,33.76
2018-07-25T08:35:55.633Z,33.89
2018-07-25T08:36:55.602Z,34.02
2018-07-25T08:37:55.586Z,34.00
2018-07-25T08:38:55.577Z,34.26
2018-07-25T08:39:55.570Z,34.42
2018-07-25T08:40:55.588Z,34.44
2018-07-25T08:41:55.546Z,34.61
2018-07-25T08:42:55.545Z,34.74
2018-07-25T08:43:55.532Z,34.88
2018-07-25T08:44:55.520Z,34.88
2018-07-25T08:45:55.540Z,35.17
2018-07-25T08:46:55.544Z,35.20
2018-07-25T08:47:55.492Z,35.35
2018-07-25T08:48:55.484Z,35.30
2018-07-25T08:49:55.472Z,35.33
2018-07-25T08:50:55.493Z,35.48
2018-07-25T08:51:55.455Z,35.57
2018-07-25T08:52:55.502Z,35.63
2018-07-25T08:53:55.433Z,35.70
2018-07-25T08:54:55.420Z,35.67
2018-07-25T08:55:55.442Z,35.51
2018-07-25T08:56:55.401Z,35.57
2018-07-25T08:57:55.401Z,35.52
2018-07-25T08:58:55.381Z,35.55
2018-07-25T08:59:55.381Z,35.66
2018-07-25T09:00:55.387Z,35.73
2018-07-25T09:01:55.377Z,35.91
2018-07-25T09:02:55.353Z,36.00
2018-07-25T09:03:55.333Z,36.19
2018-07-25T09:04:55.335Z,36.36
2018-07-25T09:05:55.348Z,36.41
2018-07-25T09:06:55.305Z,36.61
2018-07-25T09:07:55.305Z,36.67
2018-07-25T09:08:55.287Z,36.72
2018-07-25T09:09:55.278Z,36.83
2018-07-25T09:10:55.300Z,36.99
2018-07-25T09:11:55.259Z,36.92
2018-07-25T09:12:55.318Z,36.99
2018-07-25T09:13:55.239Z,37.16
2018-07-25T09:14:55.240Z,37.24
2018-07-25T09:15:55.247Z,37.33
2018-07-25T09:16:55.284Z,37.38
2018-07-25T09:17:55.213Z,37.42
2018-07-25T09:18:55.196Z,37.39
2018-07-25T09:19:55.227Z,37.56
2018-07-25T09:20:55.201Z,37.62
2018-07-25T09:21:55.174Z,37.62
2018-07-25T09:22:55.162Z,37.64
2018-07-25T09:23:55.156Z,37.66
2018-07-25T09:24:55.143Z,37.67
2018-07-25T09:25:55.157Z,37.66
2018-07-25T09:26:55.129Z,37.73
2018-07-25T09:27:55.115Z,37.73
2018-07-25T09:28:55.109Z,37.74
2018-07-25T09:29:55.098Z,37.71
2018-07-25T09:30:55.114Z,37.80
2018-07-25T09:31:55.086Z,37.98
2018-07-25T09:32:55.079Z,37.99
2018-07-25T09:33:55.088Z,38.05
2018-07-25T09:34:55.059Z,38.10
2018-07-25T09:35:55.064Z,38.41
2018-07-25T09:36:55.045Z,38.46
2018-07-25T09:37:55.032Z,38.53
2018-07-25T09:38:55.016Z,38.71
2018-07-25T09:39:55.014Z,38.66
2018-07-25T09:40:55.052Z,38.67
2018-07-25T09:41:54.990Z,38.67
2018-07-25T09:42:54.985Z,38.80
2018-07-25T09:43:54.972Z,38.78
2018-07-25T09:44:54.967Z,38.83
2018-07-25T09:45:54.987Z,38.98
2018-07-25T09:46:54.985Z,39.14
2018-07-25T09:47:54.938Z,39.25
2018-07-25T09:48:54.950Z,39.39
2018-07-25T09:49:54.926Z,39.62
2018-07-25T09:50:54.943Z,39.70
2018-07-25T09:51:54.905Z,39.84
2018-07-25T09:52:54.949Z,39.83
2018-07-25T09:53:54.891Z,40.00
2018-07-25T09:54:54.889Z,39.96
2018-07-25T09:55:54.920Z,40.05
2018-07-25T09:56:54.864Z,40.21
2018-07-25T09:57:54.859Z,40.34
2018-07-25T09:58:54.922Z,40.27
2018-07-25T09:59:54.833Z,40.61
2018-07-25T10:00:54.920Z,40.76
2018-07-25T10:01:54.826Z,40.87
2018-07-25T10:02:54.817Z,41.06
2018-07-25T10:03:54.811Z,41.29
2018-07-25T10:04:54.802Z,41.31
2018-07-25T10:05:54.819Z,41.40
2018-07-25T10:06:54.786Z,41.47
2018-07-25T10:07:54.778Z,41.62
2018-07-25T10:08:54.775Z,41.74
2018-07-25T10:09:54.763Z,41.86
2018-07-25T10:10:54.789Z,42.01
2018-07-25T10:11:54.749Z,42.09
2018-07-25T10:12:54.739Z,42.00
2018-07-25T10:13:54.731Z,42.08
2018-07-25T10:14:54.750Z,42.03
2018-07-25T10:15:54.746Z,42.04
2018-07-25T10:16:54.708Z,41.96
2018-07-25T10:17:54.702Z,42.08
2018-07-25T10:18:54.705Z,42.09
2018-07-25T10:19:54.685Z,42.13
2018-07-25T10:20:54.802Z,42.28
2018-07-25T10:21:54.668Z,42.34
2018-07-25T10:22:54.659Z,42.38
2018-07-25T10:23:54.652Z,42.58
2018-07-25T10:24:54.645Z,42.58
2018-07-25T10:25:54.664Z,42.66
2018-07-25T10:26:54.632Z,42.79
2018-07-25T10:27:54.621Z,42.75
2018-07-25T10:28:54.648Z,42.73
2018-07-25T10:29:54.606Z,42.68
2018-07-25T10:30:54.622Z,42.50
2018-07-25T10:31:54.590Z,42.44
2018-07-25T10:32:54.589Z,42.54
2018-07-25T10:33:54.574Z,42.63
2018-07-25T10:34:54.581Z,42.79
2018-07-25T10:35:54.625Z,42.87
2018-07-25T10:36:54.551Z,43.27
2018-07-25T10:37:54.543Z,43.41
2018-07-25T10:38:54.542Z,43.41
2018-07-25T10:39:54.528Z,43.56
2018-07-25T10:40:54.547Z,43.80
2018-07-25T10:41:54.513Z,43.97
2018-07-25T10:42:54.505Z,43.95
2018-07-25T10:43:54.499Z,43.87
2018-07-25T10:44:54.491Z,44.01
2018-07-25T10:45:54.518Z,43.97
2018-07-25T10:46:54.473Z,43.97
2018-07-25T10:47:54.465Z,43.94
2018-07-25T10:48:54.482Z,43.85
2018-07-25T10:49:54.449Z,43.82
2018-07-25T10:50:54.469Z,43.89
2018-07-25T10:51:54.434Z,43.75
2018-07-25T10:52:54.439Z,43.86
2018-07-25T10:53:54.417Z,43.92
2018-07-25T10:54:54.409Z,44.10
2018-07-25T10:55:54.465Z,44.14
2018-07-25T10:56:54.395Z,44.17
2018-07-25T10:57:54.393Z,44.23
2018-07-25T10:58:54.380Z,44.26
2018-07-25T10:59:54.372Z,44.45
2018-07-25T11:00:54.406Z,44.51
2018-07-25T11:01:54.358Z,44.29
2018-07-25T11:02:54.349Z,44.28
2018-07-25T11:03:54.411Z,44.33
2018-07-25T11:04:54.332Z,44.33
2018-07-25T11:05:54.350Z,44.47
2018-07-25T11:06:54.317Z,44.65
2018-07-25T11:07:54.308Z,44.59
2018-07-25T11:08:54.301Z,44.75
2018-07-25T11:09:54.292Z,44.57
2018-07-25T11:10:54.309Z,44.39
2018-07-25T11:11:54.286Z,44.17
2018-07-25T11:12:54.267Z,43.90
2018-07-25T11:13:54.260Z,43.90
2018-07-25T11:14:54.250Z,43.71
2018-07-25T11:15:54.266Z,43.75
2018-07-25T11:16:54.235Z,43.67
2018-07-25T11:17:54.226Z,43.73
2018-07-25T11:18:54.218Z,43.79
2018-07-25T11:19:54.213Z,43.87
2018-07-25T11:20:54.228Z,43.95
2018-07-25T11:21:54.193Z,43.99
2018-07-25T11:22:54.196Z,44.04
2018-07-25T11:23:54.175Z,44.20
2018-07-25T11:24:54.170Z,44.21
2018-07-25T11:25:54.216Z,44.24
2018-07-25T11:26:54.156Z,44.35
2018-07-25T11:27:54.139Z,44.24
2018-07-25T11:28:54.252Z,43.99
2018-07-25T11:29:54.122Z,43.64
2018-07-25T11:30:54.138Z,43.38
2018-07-25T11:31:54.157Z,43.07
2018-07-25T11:32:54.184Z,42.75
2018-07-25T11:33:54.088Z,42.60
2018-07-25T11:34:54.078Z,42.72
2018-07-25T11:35:54.093Z,42.88
2018-07-25T11:36:54.060Z,43.13
2018-07-25T11:37:54.051Z,43.25
2018-07-25T11:38:54.045Z,43.58
2018-07-25T11:39:54.035Z,43.94
2018-07-25T11:40:54.051Z,44.14
2018-07-25T11:41:54.019Z,44.47
2018-07-25T11:42:54.011Z,44.82
2018-07-25T11:43:54.008Z,44.90
2018-07-25T11:44:53.996Z,45.04
2018-07-25T11:45:54.013Z,45.30
2018-07-25T11:46:53.979Z,45.25
2018-07-25T11:47:53.970Z,45.52
2018-07-25T11:48:53.965Z,45.61
2018-07-25T11:49:53.997Z,45.65
2018-07-25T11:50:53.977Z,45.59
2018-07-25T11:51:53.943Z,45.34
2018-07-25T11:52:53.933Z,45.23
2018-07-25T11:53:53.924Z,44.80
2018-07-25T11:54:53.917Z,44.45
2018-07-25T11:55:53.939Z,44.04
2018-07-25T11:56:53.898Z,43.56
2018-07-25T11:57:53.889Z,43.27
2018-07-25T11:58:53.883Z,43.45
2018-07-25T11:59:53.873Z,43.52
2018-07-25T12:00:53.888Z,43.58
2018-07-25T12:01:53.862Z,43.89
2018-07-25T12:02:53.847Z,44.02
2018-07-25T12:03:53.840Z,44.14
2018-07-25T12:04:53.832Z,44.29
2018-07-25T12:05:53.847Z,44.23
2018-07-25T12:06:53.820Z,44.32
2018-07-25T12:07:53.804Z,44.59
2018-07-25T12:08:53.795Z,44.89
2018-07-25T12:09:53.793Z,44.97
2018-07-25T12:10:53.804Z,45.25
2018-07-25T12:11:53.771Z,45.32
2018-07-25T12:12:53.873Z,45.49
2018-07-25T12:13:53.757Z,45.73
2018-07-25T12:14:53.749Z,45.64
2018-07-25T12:15:53.768Z,45.78
2018-07-25T12:16:53.731Z,45.87
2018-07-25T12:17:53.722Z,46.00
2018-07-25T12:18:53.736Z,46.11
2018-07-25T12:19:53.708Z,46.11
2018-07-25T12:20:53.743Z,46.00
2018-07-25T12:21:53.690Z,45.85
2018-07-25T12:22:53.683Z,45.58
2018-07-25T12:23:53.673Z,45.13
2018-07-25T12:24:53.664Z,44.65
2018-07-25T12:25:53.678Z,44.06
2018-07-25T12:26:53.652Z,43.51
2018-07-25T12:27:53.636Z,42.94
2018-07-25T12:28:53.631Z,42.41
2018-07-25T12:29:53.618Z,42.05
2018-07-25T12:30:53.631Z,41.56
2018-07-25T12:31:53.598Z,41.55
2018-07-25T12:32:53.592Z,41.41
2018-07-25T12:33:53.577Z,41.13
2018-07-25T12:34:53.568Z,40.80
2018-07-25T12:35:53.582Z,40.64
2018-07-25T12:36:53.591Z,40.45
2018-07-25T12:37:53.547Z,40.30
2018-07-25T12:38:53.531Z,40.24
2018-07-25T12:39:53.519Z,40.02
2018-07-25T12:40:53.533Z,39.92
2018-07-25T12:41:53.503Z,40.02
2018-07-25T12:42:53.530Z,40.14
2018-07-25T12:43:53.480Z,40.33
2018-07-25T12:44:53.470Z,40.43
2018-07-25T12:45:53.486Z,40.49
2018-07-25T12:46:53.451Z,40.69
2018-07-25T12:47:53.441Z,40.62
2018-07-25T12:48:53.430Z,40.72
2018-07-25T12:49:53.420Z,40.65
2018-07-25T12:50:53.432Z,40.61
2018-07-25T12:51:53.399Z,40.65